Time;durP1;ratioP1;P1;durP2;ratioP2;P2;SDS_P1;SDS_P2;PMS_P1;PMS_P2;Temp;Humidity;BMP_temperature;BMP_pressure;BME280_temperature;BME280_humidity;BME280_pressure;Samples;Min_cycle;Max_cycle;Signal;HPM_P1;HPM_P2
2021/07/16 00:00:13;;;;;;;2.57;2.10;;;;;;;20.67;63.88;99178.31;5071633;28;20226;-82
2021/07/16 00:02:42;;;;;;;2.87;2.20;;;;;;;20.72;63.91;99168.47;5055999;28;20625;-81
2021/07/16 00:05:09;;;;;;;2.17;1.97;;;;;;;20.70;63.03;99174.22;5105820;28;20236;-82
2021/07/16 00:07:41;;;;;;;2.27;2.13;;;;;;;20.67;63.00;99182.16;5055441;28;20300;-82
2021/07/16 00:10:09;;;;;;;2.77;1.93;;;;;;;20.66;62.60;99175.91;5071715;28;20236;-82
2021/07/16 00:12:36;;;;;;;2.53;2.20;;;;;;;20.73;62.19;99175.50;5073451;28;20255;-82
2021/07/16 00:15:05;;;;;;;2.20;2.00;;;;;;;20.71;62.13;99175.84;5055592;28;20232;-82
2021/07/16 00:17:32;;;;;;;2.33;2.00;;;;;;;20.73;62.10;99175.50;5055555;28;20283;-82
2021/07/16 00:19:59;;;;;;;3.20;2.13;;;;;;;20.78;62.28;99195.31;5055510;28;20686;-82
2021/07/16 00:22:27;;;;;;;2.03;1.93;;;;;;;20.71;62.43;99186.72;5055146;28;20258;-82
2021/07/16 00:24:54;;;;;;;2.00;1.90;;;;;;;20.67;62.30;99185.66;5039051;28;20235;-82
2021/07/16 00:27:20;;;;;;;1.83;1.73;;;;;;;20.63;62.55;99192.81;5055404;28;20585;-82
2021/07/16 00:29:47;;;;;;;2.00;1.90;;;;;;;20.62;62.75;99199.38;5055280;28;20251;-81
2021/07/16 00:32:14;;;;;;;2.10;1.90;;;;;;;20.56;62.97;99203.28;5055257;28;20311;-82
2021/07/16 00:34:41;;;;;;;2.40;2.10;;;;;;;20.58;63.22;99217.38;5055306;28;20229;-82
2021/07/16 00:37:08;;;;;;;2.00;1.90;;;;;;;20.43;63.44;99198.59;5055499;28;20256;-83
2021/07/16 00:39:36;;;;;;;3.83;1.97;;;;;;;20.38;64.64;99204.09;5038630;28;20229;-81
2021/07/16 00:42:03;;;;;;;2.00;1.90;;;;;;;20.30;65.28;99207.41;5088194;28;20250;-82
2021/07/16 00:44:33;;;;;;;2.47;1.80;;;;;;;20.27;65.05;99208.00;5071921;28;20231;-81
2021/07/16 00:47:00;;;;;;;2.30;2.10;;;;;;;20.19;65.44;99206.78;5054938;28;20601;-83
2021/07/16 00:49:28;;;;;;;2.47;2.27;;;;;;;20.12;65.66;99209.03;5055332;28;20246;-82
2021/07/16 00:51:55;;;;;;;2.20;2.00;;;;;;;20.07;66.12;99209.09;5055537;28;20578;-82
2021/07/16 00:54:22;;;;;;;1.77;1.67;;;;;;;20.00;66.75;99197.78;5054768;28;20226;-82
2021/07/16 00:56:50;;;;;;;2.13;1.90;;;;;;;19.94;67.25;99204.38;5038597;28;20234;-83
2021/07/16 00:59:18;;;;;;;2.03;1.90;;;;;;;19.87;67.32;99187.59;5071486;28;20246;-82
2021/07/16 01:01:46;;;;;;;2.30;2.00;;;;;;;19.86;67.02;99196.84;5088475;28;20236;-82
2021/07/16 01:04:14;;;;;;;2.20;2.10;;;;;;;19.72;67.08;99185.88;5088073;28;20624;-82
2021/07/16 01:06:41;;;;;;;3.53;2.13;;;;;;;19.73;66.85;99182.06;5071635;28;20234;-83
2021/07/16 01:09:08;;;;;;;1.90;1.80;;;;;;;19.68;66.88;99182.94;5071844;28;20231;-82
2021/07/16 01:11:35;;;;;;;2.37;2.17;;;;;;;19.75;67.15;99193.44;5055106;28;20517;-83
2021/07/16 01:14:02;;;;;;;2.30;2.10;;;;;;;19.70;67.09;99197.03;5038175;28;20230;-82
2021/07/16 01:16:29;;;;;;;2.40;2.20;;;;;;;19.64;67.19;99189.25;5038667;28;20230;-82
2021/07/16 01:18:57;;;;;;;2.30;2.10;;;;;;;19.64;67.28;99189.25;5055595;28;20661;-81
2021/07/16 01:21:26;;;;;;;2.23;2.00;;;;;;;19.61;66.84;99184.38;5059022;28;20239;-83
2021/07/16 01:23:53;;;;;;;3.87;2.40;;;;;;;19.62;66.59;99184.09;5042347;28;20582;-83
2021/07/16 01:26:20;;;;;;;4.27;2.03;;;;;;;19.59;67.13;99190.13;5075138;28;20242;-83
2021/07/16 01:28:47;;;;;;;2.33;2.13;;;;;;;19.58;66.76;99169.47;5075470;28;20231;-84
2021/07/16 01:31:14;;;;;;;1.97;1.80;;;;;;;19.60;66.28;99178.13;5058555;28;20315;-84
2021/07/16 01:33:41;;;;;;;2.13;2.03;;;;;;;19.56;66.73;99179.00;5075264;28;20235;-84
2021/07/16 01:36:08;;;;;;;2.10;2.00;;;;;;;19.49;66.72;99164.97;5058427;28;20575;-83
2021/07/16 01:38:35;;;;;;;1.97;1.87;;;;;;;19.55;66.34;99180.13;5042089;28;20223;-84
2021/07/16 01:41:04;;;;;;;2.40;1.93;;;;;;;19.41;66.16;99160.13;5074932;28;20677;-83
2021/07/16 01:43:31;;;;;;;2.70;2.10;;;;;;;19.50;66.01;99174.72;5058418;28;20227;-83
2021/07/16 01:45:58;;;;;;;2.20;2.00;;;;;;;19.45;65.90;99174.78;5058764;28;20314;-84
2021/07/16 01:48:27;;;;;;;2.37;2.00;;;;;;;19.48;65.52;99180.44;5058052;28;20309;-85
2021/07/16 01:50:53;;;;;;;2.77;1.97;;;;;;;19.41;65.89;99169.06;5042219;28;20253;-83
2021/07/16 01:53:21;;;;;;;2.23;1.90;;;;;;;19.45;65.68;99172.06;5058373;28;20229;-85
2021/07/16 01:55:48;;;;;;;2.00;1.73;;;;;;;19.38;65.91;99166.94;5091867;28;20223;-84
2021/07/16 01:58:16;;;;;;;2.37;2.00;;;;;;;19.43;66.04;99164.16;5058010;28;20238;-84
2021/07/16 02:00:46;;;;;;;2.10;1.97;;;;;;;19.38;65.89;99155.25;5091587;28;20235;-85
2021/07/16 02:03:15;;;;;;;2.27;1.80;;;;;;;19.35;65.97;99157.47;5074785;28;20638;-83
2021/07/16 02:05:45;;;;;;;3.20;1.90;;;;;;;19.26;65.96;99155.66;5091391;28;20234;-85
2021/07/16 02:08:21;;;;;;;2.10;1.93;;;;;;;19.29;66.17;99160.50;5057843;28;20234;-85
2021/07/16 02:10:51;;;;;;;2.33;2.00;;;;;;;19.26;66.58;99158.38;5091423;28;20229;-85
2021/07/16 02:13:18;;;;;;;3.27;1.97;;;;;;;19.20;66.71;99152.19;5074782;28;20542;-85
2021/07/16 02:15:48;;;;;;;2.00;1.90;;;;;;;19.13;67.11;99146.28;5058071;28;20588;-85
2021/07/16 02:18:20;;;;;;;2.10;1.90;;;;;;;19.09;67.40;99153.38;5041287;28;20223;-84
2021/07/16 02:20:47;;;;;;;2.53;1.90;;;;;;;19.06;67.69;99158.56;5057728;28;20305;-85
2021/07/16 02:23:17;;;;;;;3.03;2.30;;;;;;;19.05;67.59;99165.91;5074367;28;20308;-86
2021/07/16 02:25:45;;;;;;;2.00;1.90;;;;;;;18.99;67.53;99166.25;5074514;28;20300;-86
2021/07/16 02:28:32;;;;;;;3.30;2.17;;;;;;;18.91;68.04;99165.75;5057649;28;20261;-85
2021/07/16 02:31:00;;;;;;;2.27;1.90;;;;;;;18.83;68.18;99160.97;5047797;28;20229;-85
2021/07/16 02:33:28;;;;;;;2.37;2.00;;;;;;;18.80;68.47;99166.16;5057673;28;20591;-84
2021/07/16 02:35:55;;;;;;;2.40;2.20;;;;;;;18.66;69.14;99157.84;5074649;28;20232;-85
2021/07/16 02:38:22;;;;;;;2.90;2.30;;;;;;;18.68;69.39;99161.06;5074050;28;20253;-85
2021/07/16 02:40:51;;;;;;;2.33;2.17;;;;;;;18.55;70.04;99152.78;5090729;28;20230;-86
2021/07/16 02:43:18;;;;;;;2.30;2.13;;;;;;;18.60;69.53;99160.88;5075526;28;20244;-86
2021/07/16 02:45:45;;;;;;;4.30;2.00;;;;;;;18.48;69.50;99153.88;5041142;28;20324;-86
2021/07/16 02:48:13;;;;;;;2.30;2.10;;;;;;;18.64;69.33;99175.50;5057393;28;20674;-85
2021/07/16 02:50:43;;;;;;;3.17;2.20;;;;;;;18.49;69.72;99160.91;5091036;28;20272;-86
2021/07/16 02:53:11;;;;;;;2.93;2.07;;;;;;;18.54;69.80;99162.81;5074113;28;20601;-86
2021/07/16 02:55:39;;;;;;;2.00;1.80;;;;;;;18.51;70.15;99162.53;5057354;28;20651;-85
2021/07/16 02:58:09;;;;;;;2.40;2.03;;;;;;;18.49;70.87;99165.53;5057012;28;20628;-85
2021/07/16 03:00:37;;;;;;;2.87;2.37;;;;;;;18.41;70.51;99160.72;5107230;28;20248;-86
2021/07/16 03:03:04;;;;;;;1.90;1.80;;;;;;;18.44;69.78;99166.38;5057588;28;20233;-85
2021/07/16 03:05:36;;;;;;;2.30;2.10;;;;;;;18.43;69.71;99180.22;5073799;28;20228;-85
2021/07/16 03:08:09;;;;;;;2.30;1.87;;;;;;;18.39;69.78;99174.53;5089510;28;20753;-86
2021/07/16 03:10:38;;;;;;;3.30;2.10;;;;;;;18.38;70.38;99183.75;5073790;28;20235;-86
2021/07/16 03:13:08;;;;;;;2.00;1.90;;;;;;;18.34;70.83;99190.03;5089941;28;20540;-85
2021/07/16 03:15:35;;;;;;;3.43;2.10;;;;;;;18.33;70.88;99185.72;5040593;28;20239;-86
2021/07/16 03:18:03;;;;;;;2.13;1.93;;;;;;;18.30;70.90;99183.56;5056983;28;20708;-85
2021/07/16 03:20:32;;;;;;;2.20;2.10;;;;;;;18.35;70.83;99188.94;5056848;28;20504;-85
2021/07/16 03:22:59;;;;;;;3.27;2.27;;;;;;;18.38;70.67;99191.13;5056557;28;20281;-86
2021/07/16 03:25:27;;;;;;;2.33;2.13;;;;;;;18.43;70.63;99196.47;5056652;28;20303;-83
2021/07/16 03:27:54;;;;;;;2.43;1.90;;;;;;;18.37;70.29;99203.03;5089931;28;20244;-85
2021/07/16 03:30:23;;;;;;;4.00;2.20;;;;;;;18.42;70.58;99205.72;5056202;28;20232;-86
2021/07/16 03:32:50;;;;;;;2.40;2.10;;;;;;;18.54;70.54;99219.78;5057200;28;20316;-85
2021/07/16 03:35:19;;;;;;;2.70;2.17;;;;;;;18.56;70.87;99209.47;5073155;28;20242;-86
2021/07/16 03:37:46;;;;;;;2.20;2.00;;;;;;;18.69;70.98;99216.97;5053156;28;20637;-86
2021/07/16 03:40:16;;;;;;;3.23;2.23;;;;;;;18.70;71.05;99218.59;5019781;28;20284;-86
2021/07/16 03:42:43;;;;;;;3.67;2.23;;;;;;;18.90;70.49;99220.31;5036202;28;20307;-85
2021/07/16 03:45:13;;;;;;;2.30;2.10;;;;;;;18.98;69.91;99218.94;5036601;28;20549;-85
2021/07/16 03:47:43;;;;;;;2.50;2.30;;;;;;;19.03;69.88;99203.41;5036720;28;20640;-85
2021/07/16 03:50:12;;;;;;;1.93;1.83;;;;;;;19.24;69.62;99220.31;5036031;28;20233;-85
2021/07/16 03:52:40;;;;;;;2.00;1.90;;;;;;;19.30;69.00;99213.75;5036471;28;20229;-85
2021/07/16 03:55:09;;;;;;;3.13;1.90;;;;;;;19.36;68.89;99205.25;5052835;28;20230;-85
2021/07/16 03:57:47;;;;;;;2.97;2.10;;;;;;;19.43;67.90;99207.63;5036666;28;20253;-86
2021/07/16 04:00:17;;;;;;;2.37;1.80;;;;;;;19.48;67.83;99215.75;5052302;28;20253;-85
2021/07/16 04:02:44;;;;;;;2.10;2.00;;;;;;;19.56;67.40;99195.28;5036256;28;20305;-85
2021/07/16 04:05:12;;;;;;;2.80;2.13;;;;;;;20.11;65.69;99208.22;5036476;28;20326;-86
2021/07/16 04:07:47;;;;;;;2.10;1.90;;;;;;;21.41;61.33;99213.88;5053654;28;20256;-85
2021/07/16 04:10:19;;;;;;;1.90;1.80;;;;;;;22.92;55.91;99226.25;5036537;28;20236;-85
2021/07/16 04:13:00;;;;;;;3.23;1.63;;;;;;;24.38;52.28;99246.13;5036299;28;20791;-85
2021/07/16 04:15:27;;;;;;;1.70;1.60;;;;;;;25.08;49.88;99242.31;5052627;28;20236;-85
2021/07/16 04:17:56;;;;;;;3.57;1.80;;;;;;;25.28;48.89;99219.72;5035883;28;20643;-84
2021/07/16 04:20:24;;;;;;;2.07;1.87;;;;;;;25.20;49.35;99231.50;5018858;28;20258;-85
2021/07/16 04:22:51;;;;;;;1.70;1.60;;;;;;;24.99;49.60;99234.09;5035547;28;20230;-85
2021/07/16 04:25:19;;;;;;;2.23;1.83;;;;;;;25.03;49.16;99245.22;5035579;28;20294;-85
2021/07/16 04:27:48;;;;;;;1.90;1.60;;;;;;;24.86;49.65;99246.06;5035894;28;20250;-85
2021/07/16 04:30:18;;;;;;;2.25;1.58;;;;;;;24.79;49.90;99233.91;5018885;28;20261;-85
2021/07/16 04:32:45;;;;;;;1.85;1.65;;;;;;;24.74;50.02;99245.03;5019351;28;20534;-85
2021/07/16 04:35:16;;;;;;;2.40;1.90;;;;;;;24.49;50.49;99243.91;5018959;28;20686;-83
2021/07/16 04:37:43;;;;;;;2.10;1.92;;;;;;;24.30;51.32;99248.88;5035873;28;20247;-85
2021/07/16 04:40:12;;;;;;;2.58;1.75;;;;;;;24.02;52.40;99229.13;5018812;28;20240;-84
2021/07/16 04:42:39;;;;;;;1.70;1.60;;;;;;;23.81;52.62;99236.28;5019311;28;20235;-85
2021/07/16 04:45:06;;;;;;;3.72;1.77;;;;;;;23.56;53.55;99233.09;5052170;28;20253;-85
2021/07/16 04:47:34;;;;;;;3.25;1.80;;;;;;;23.49;53.86;99238.22;5035639;28;20286;-85
2021/07/16 04:50:00;;;;;;;1.85;1.75;;;;;;;23.50;54.21;99236.31;5052143;28;20704;-84
2021/07/16 04:52:27;;;;;;;1.80;1.70;;;;;;;23.44;54.17;99230.16;5035663;28;20707;-84
2021/07/16 04:54:54;;;;;;;3.35;1.73;;;;;;;23.48;54.08;99239.34;5039947;28;20698;-85
2021/07/16 04:57:21;;;;;;;2.15;1.50;;;;;;;23.51;54.02;99244.19;5039823;28;20256;-82
2021/07/16 04:59:50;;;;;;;3.60;1.70;;;;;;;23.70;53.61;99246.72;5039470;28;20312;-83
2021/07/16 05:02:16;;;;;;;2.00;1.70;;;;;;;23.82;53.72;99243.38;5038711;28;20244;-83
2021/07/16 05:04:43;;;;;;;2.05;1.63;;;;;;;23.92;53.19;99237.63;5022950;28;20241;-83
2021/07/16 05:07:11;;;;;;;1.75;1.65;;;;;;;23.97;52.35;99248.41;5039455;28;20233;-84
2021/07/16 05:09:38;;;;;;;1.45;1.38;;;;;;;23.97;52.55;99237.47;5039291;28;20241;-84
2021/07/16 05:12:05;;;;;;;2.67;1.48;;;;;;;24.00;51.78;99231.34;5039048;28;20295;-84
2021/07/16 05:14:32;;;;;;;2.50;1.60;;;;;;;24.04;51.61;99244.09;5039475;28;20229;-84
2021/07/16 05:16:59;;;;;;;2.13;1.67;;;;;;;24.07;51.84;99229.78;5039463;28;20226;-84
2021/07/16 05:19:25;;;;;;;2.78;1.70;;;;;;;24.22;51.69;99246.88;5022835;28;20236;-83
2021/07/16 05:21:52;;;;;;;1.85;1.50;;;;;;;24.31;51.54;99255.97;5038980;28;20268;-84
2021/07/16 05:24:21;;;;;;;1.50;1.35;;;;;;;24.24;51.08;99261.88;5038767;28;20314;-84
2021/07/16 05:26:47;;;;;;;2.92;1.60;;;;;;;24.27;51.15;99249.47;5039310;28;20318;-84
2021/07/16 05:29:14;;;;;;;3.45;1.80;;;;;;;24.32;51.61;99250.16;5038857;28;20230;-84
2021/07/16 05:31:43;;;;;;;1.77;1.67;;;;;;;24.34;51.14;99253.38;5038878;28;20244;-83
2021/07/16 05:34:10;;;;;;;1.73;1.63;;;;;;;24.29;50.92;99252.72;5022522;28;20514;-84
2021/07/16 05:36:37;;;;;;;2.10;1.55;;;;;;;24.45;50.95;99262.09;5022657;28;20225;-83
2021/07/16 05:39:05;;;;;;;2.65;1.55;;;;;;;24.53;50.46;99264.84;5038442;28;20234;-82
2021/07/16 05:41:32;;;;;;;2.15;1.45;;;;;;;24.80;50.37;99268.41;5038730;28;20311;-83
2021/07/16 05:43:59;;;;;;;3.08;1.92;;;;;;;25.04;49.24;99270.69;5038755;28;20226;-81
2021/07/16 05:46:29;;;;;;;2.55;1.63;;;;;;;24.95;48.95;99263.28;5038217;28;20225;-83
2021/07/16 05:48:55;;;;;;;1.55;1.45;;;;;;;24.98;49.28;99261.84;5022626;28;20569;-82
2021/07/16 05:51:23;;;;;;;2.20;1.80;;;;;;;25.26;48.87;99273.25;5038594;28;20275;-82
2021/07/16 05:53:50;;;;;;;1.85;1.70;;;;;;;25.23;48.29;99271.97;5038445;28;20266;-83
2021/07/16 05:56:17;;;;;;;2.58;1.75;;;;;;;25.16;48.20;99263.44;5038040;28;20260;-83
2021/07/16 05:58:44;;;;;;;1.67;1.58;;;;;;;25.14;48.53;99268.44;5054992;28;20669;-83
2021/07/16 06:01:11;;;;;;;1.70;1.60;;;;;;;24.99;48.82;99264.25;5038062;28;20230;-84
2021/07/16 06:03:38;;;;;;;1.80;1.70;;;;;;;25.13;49.06;99280.53;5054996;28;20230;-83
2021/07/16 06:06:05;;;;;;;2.55;1.80;;;;;;;25.17;48.77;99269.72;5053462;28;20265;-82
2021/07/16 06:08:32;;;;;;;1.80;1.60;;;;;;;25.12;48.43;99278.09;5054821;28;20221;-83
2021/07/16 06:10:58;;;;;;;1.75;1.65;;;;;;;25.02;48.29;99271.00;5037838;28;20237;-83
2021/07/16 06:13:25;;;;;;;1.80;1.70;;;;;;;25.12;48.66;99273.44;5054750;28;20639;-84
2021/07/16 06:15:53;;;;;;;2.53;1.80;;;;;;;25.26;49.01;99279.53;5038028;28;20284;-83
2021/07/16 06:18:22;;;;;;;2.05;1.77;;;;;;;25.35;48.23;99283.06;5021165;28;20221;-83
2021/07/16 06:20:50;;;;;;;1.60;1.50;;;;;;;25.42;48.05;99271.63;5038366;28;20288;-84
2021/07/16 06:23:17;;;;;;;2.55;2.05;;;;;;;25.76;47.55;99278.97;5037899;28;20284;-85
2021/07/16 06:25:44;;;;;;;2.15;1.95;;;;;;;25.84;46.63;99267.97;5037739;28;20241;-81
2021/07/16 06:28:11;;;;;;;2.92;1.98;;;;;;;25.80;46.57;99271.72;5053652;28;20235;-80
2021/07/16 06:30:38;;;;;;;2.85;1.98;;;;;;;25.91;46.82;99267.44;5037096;28;20643;-80
2021/07/16 06:33:05;;;;;;;7.50;2.10;;;;;;;25.96;46.76;99260.97;5036887;28;20325;-80
2021/07/16 06:35:32;;;;;;;1.83;1.73;;;;;;;26.12;45.91;99262.84;5036673;28;20655;-80
2021/07/16 06:37:59;;;;;;;2.95;1.95;;;;;;;26.16;45.20;99272.03;5053745;28;20226;-81
2021/07/16 06:40:26;;;;;;;2.92;1.95;;;;;;;26.13;45.72;99255.41;5052964;28;20678;-80
2021/07/16 06:42:53;;;;;;;4.10;2.10;;;;;;;26.31;45.53;99262.44;5036170;28;20310;-80
2021/07/16 06:45:20;;;;;;;3.00;2.20;;;;;;;26.14;45.44;99263.31;5038069;28;20358;-80
2021/07/16 06:47:47;;;;;;;2.17;2.08;;;;;;;26.17;45.01;99257.16;5056421;28;20293;-78
2021/07/16 06:50:13;;;;;;;2.25;1.92;;;;;;;26.34;45.15;99259.03;5052538;28;20225;-80
2021/07/16 06:52:40;;;;;;;2.45;2.00;;;;;;;26.37;45.44;99244.63;5064919;28;20309;-81
2021/07/16 06:55:07;;;;;;;2.75;1.98;;;;;;;26.30;45.30;99252.59;5056771;28;20934;-80
2021/07/16 06:57:34;;;;;;;3.47;2.45;;;;;;;26.36;44.86;99255.97;5073492;28;20278;-80
2021/07/16 07:00:03;;;;;;;2.53;2.20;;;;;;;26.36;44.65;99265.00;5071716;28;20224;-79
2021/07/16 07:02:30;;;;;;;2.22;1.90;;;;;;;26.37;44.60;99255.63;5055798;28;20239;-79
2021/07/16 07:04:58;;;;;;;2.03;1.92;;;;;;;26.70;43.93;99259.25;5069754;28;20814;-79
2021/07/16 07:07:25;;;;;;;2.30;2.10;;;;;;;26.78;44.04;99243.88;5056639;28;20224;-78
2021/07/16 07:09:52;;;;;;;2.40;2.20;;;;;;;26.87;43.60;99252.88;5072291;28;20246;-79
2021/07/16 07:12:19;;;;;;;3.05;2.00;;;;;;;26.87;43.08;99247.38;5052461;28;20639;-79
2021/07/16 07:14:47;;;;;;;2.60;2.20;;;;;;;27.26;43.36;99261.72;5052853;28;20285;-79
2021/07/16 07:17:14;;;;;;;2.25;2.10;;;;;;;27.17;42.73;99254.38;5043235;28;20320;-79
2021/07/16 07:19:41;;;;;;;2.20;2.05;;;;;;;27.35;41.65;99262.44;5072638;28;20243;-79
2021/07/16 07:22:07;;;;;;;3.17;2.33;;;;;;;27.21;42.28;99256.44;5071903;28;20230;-78
2021/07/16 07:24:34;;;;;;;3.50;2.08;;;;;;;27.10;43.08;99258.81;5072615;28;20313;-78
2021/07/16 07:27:01;;;;;;;2.08;1.90;;;;;;;27.27;42.83;99246.84;5072596;28;20316;-78
2021/07/16 07:29:30;;;;;;;2.85;2.15;;;;;;;27.50;42.27;99256.31;5055829;28;20316;-82
2021/07/16 07:31:57;;;;;;;2.05;1.85;;;;;;;27.52;42.25;99238.34;5056082;28;20641;-80
2021/07/16 07:34:24;;;;;;;2.20;2.10;;;;;;;27.90;41.27;99262.81;5035305;28;20692;-81
2021/07/16 07:36:52;;;;;;;3.00;2.50;;;;;;;27.96;40.97;99255.13;5071982;28;20674;-80
2021/07/16 07:39:19;;;;;;;2.30;2.10;;;;;;;27.95;40.47;99261.78;5037267;28;20507;-81
2021/07/16 07:41:46;;;;;;;2.50;2.30;;;;;;;27.81;40.94;99259.34;5068385;28;20783;-80
2021/07/16 07:44:14;;;;;;;2.42;2.22;;;;;;;27.96;40.47;99263.38;5052007;28;20243;-80
2021/07/16 07:46:42;;;;;;;2.42;2.22;;;;;;;27.93;40.84;99262.13;5053003;28;20254;-82
2021/07/16 07:49:11;;;;;;;2.30;2.10;;;;;;;28.12;40.56;99261.59;5054294;28;20670;-81
2021/07/16 07:51:38;;;;;;;2.78;2.28;;;;;;;28.43;40.35;99266.50;5038793;28;20231;-82
2021/07/16 07:54:06;;;;;;;2.60;2.40;;;;;;;28.61;39.99;99270.59;5054476;28;20232;-81
2021/07/16 07:56:33;;;;;;;3.65;2.35;;;;;;;28.72;39.32;99265.47;5054528;28;20232;-79
2021/07/16 07:59:01;;;;;;;3.40;2.25;;;;;;;28.68;40.38;99259.81;5072305;28;20255;-79
2021/07/16 08:01:34;;;;;;;3.25;2.20;;;;;;;28.62;39.15;99263.94;5055369;28;20708;-80
2021/07/16 08:04:02;;;;;;;4.55;2.55;;;;;;;29.13;39.57;99276.13;5071366;28;20316;-81
2021/07/16 08:06:29;;;;;;;2.78;2.30;;;;;;;29.07;39.01;99285.78;5055507;28;20236;-79
2021/07/16 08:08:56;;;;;;;2.72;2.20;;;;;;;29.19;39.18;99271.16;5054881;28;20232;-80
2021/07/16 08:11:23;;;;;;;2.55;2.35;;;;;;;28.97;38.58;99271.72;5071476;28;20240;-80
2021/07/16 08:13:50;;;;;;;2.38;2.28;;;;;;;28.79;39.08;99263.69;5038913;28;20263;-79
2021/07/16 08:16:17;;;;;;;3.40;2.20;;;;;;;28.90;38.60;99272.28;5069615;28;20305;-79
2021/07/16 08:18:44;;;;;;;2.70;2.20;;;;;;;28.68;39.18;99275.53;5064004;28;20243;-79
2021/07/16 08:21:11;;;;;;;3.15;2.40;;;;;;;28.72;38.84;99282.00;5051769;28;20582;-79
2021/07/16 08:23:38;;;;;;;3.13;2.45;;;;;;;28.25;39.14;99278.91;5066730;28;20290;-79
2021/07/16 08:26:04;;;;;;;6.40;2.53;;;;;;;28.46;39.73;99285.13;5049593;28;20233;-82
2021/07/16 08:28:32;;;;;;;2.40;2.20;;;;;;;28.50;39.88;99293.50;5049685;28;20245;-80
2021/07/16 08:30:59;;;;;;;3.28;2.03;;;;;;;28.58;39.61;99279.59;5049694;28;20251;-80
2021/07/16 08:33:26;;;;;;;2.17;1.98;;;;;;;28.24;40.33;99285.56;5049895;28;20225;-80
2021/07/16 08:35:53;;;;;;;2.53;2.33;;;;;;;28.20;40.78;99293.72;5048860;28;20629;-79
2021/07/16 08:38:20;;;;;;;3.45;2.10;;;;;;;28.37;40.44;99293.47;5033740;28;20252;-80
2021/07/16 08:40:49;;;;;;;3.47;2.17;;;;;;;28.03;41.67;99299.44;5034542;28;20230;-80
2021/07/16 08:43:17;;;;;;;4.03;2.53;;;;;;;28.00;41.73;99298.16;5037875;28;20281;-79
2021/07/16 08:45:45;;;;;;;2.30;2.10;;;;;;;28.02;41.16;99292.31;5104713;28;20286;-79
2021/07/16 08:48:13;;;;;;;2.75;2.08;;;;;;;27.92;41.11;99290.81;5054024;28;20235;-79
2021/07/16 08:50:41;;;;;;;2.25;2.03;;;;;;;28.13;41.56;99295.47;5070947;28;20224;-80
2021/07/16 08:53:09;;;;;;;3.05;2.30;;;;;;;28.31;40.97;99311.41;5054695;28;20228;-79
2021/07/16 08:55:37;;;;;;;3.00;2.00;;;;;;;28.07;41.03;99292.09;5054803;28;20229;-82
2021/07/16 08:58:05;;;;;;;2.38;2.10;;;;;;;27.72;42.58;99297.19;5087962;28;20607;-80
2021/07/16 09:00:32;;;;;;;2.38;1.90;;;;;;;27.63;41.85;99304.72;5054501;28;20228;-80
2021/07/16 09:03:00;;;;;;;3.53;2.20;;;;;;;27.39;42.59;99299.94;5054545;28;20635;-80
2021/07/16 09:05:36;;;;;;;4.15;2.03;;;;;;;27.62;42.44;99294.09;5054501;28;20220;-80
2021/07/16 09:08:04;;;;;;;2.42;2.22;;;;;;;27.80;42.62;99281.75;5070371;28;20281;-81
2021/07/16 09:10:31;;;;;;;2.35;2.20;;;;;;;27.21;42.92;99292.19;5070620;28;20329;-81
2021/07/16 09:13:00;;;;;;;2.88;2.25;;;;;;;27.35;43.08;99284.44;5050642;28;20240;-81
2021/07/16 09:15:28;;;;;;;2.50;2.30;;;;;;;27.40;43.04;99287.78;5034477;28;20269;-81
2021/07/16 09:18:18;;;;;;;4.35;2.45;;;;;;;27.50;42.36;99283.84;5034257;28;20227;-81
2021/07/16 09:20:46;;;;;;;2.58;2.35;;;;;;;27.26;43.58;99278.22;5053831;28;20243;-82
2021/07/16 09:23:18;;;;;;;2.40;2.13;;;;;;;27.47;42.61;99285.31;5070699;28;20346;-81
2021/07/16 09:26:01;;;;;;;4.10;2.25;;;;;;;27.34;42.50;99278.13;5071001;28;20255;-81
2021/07/16 09:28:27;;;;;;;2.15;2.05;;;;;;;27.64;42.22;99273.31;5070757;28;20290;-81
2021/07/16 09:31:09;;;;;;;3.63;2.20;;;;;;;27.77;40.50;99272.19;5070767;28;20322;-82
2021/07/16 09:33:48;;;;;;;2.30;2.10;;;;;;;28.03;39.74;99264.44;5054364;28;20690;-81
2021/07/16 09:36:42;;;;;;;3.17;2.40;;;;;;;27.71;40.87;99275.53;5053959;28;20241;-81
2021/07/16 09:39:11;;;;;;;3.67;2.35;;;;;;;27.63;41.36;99266.22;5032918;28;20300;-82
2021/07/16 09:41:55;;;;;;;2.92;2.20;;;;;;;28.00;40.91;99261.56;5037847;28;20224;-81
2021/07/16 09:44:28;;;;;;;2.10;2.00;;;;;;;28.27;39.82;99271.13;5021379;28;20302;-83
2021/07/16 09:47:25;;;;;;;2.53;2.10;;;;;;;28.16;40.46;99256.19;5037805;28;20244;-82
2021/07/16 09:50:07;;;;;;;2.22;2.10;;;;;;;28.35;40.37;99261.94;5045416;28;20229;-81
2021/07/16 09:52:34;;;;;;;2.70;2.50;;;;;;;28.41;39.41;99266.06;5020962;28;20235;-81
2021/07/16 09:55:14;;;;;;;2.85;2.20;;;;;;;28.34;40.00;99263.88;5053958;28;20314;-78
2021/07/16 09:57:46;;;;;;;2.70;2.20;;;;;;;28.31;39.23;99250.81;5054124;28;20261;-80
2021/07/16 10:00:16;;;;;;;2.47;2.20;;;;;;;28.60;38.66;99260.75;5037181;28;20347;-80
2021/07/16 10:02:47;;;;;;;2.00;1.70;;;;;;;28.74;38.60;99257.66;5054012;28;20248;-80
2021/07/16 10:05:15;;;;;;;2.50;2.30;;;;;;;28.75;38.51;99254.53;5059126;28;20221;-79
2021/07/16 10:07:43;;;;;;;4.30;2.45;;;;;;;28.55;38.67;99249.16;5038870;28;20228;-80
2021/07/16 10:10:21;;;;;;;2.50;2.28;;;;;;;28.86;38.04;99249.34;5035004;28;20238;-80
2021/07/16 10:12:49;;;;;;;2.83;2.30;;;;;;;28.80;37.95;99248.78;5055618;28;20267;-79
2021/07/16 10:15:19;;;;;;;3.42;2.10;;;;;;;28.94;38.67;99247.56;5055672;28;20311;-79
2021/07/16 10:17:46;;;;;;;2.85;2.35;;;;;;;29.15;38.78;99243.47;5056034;28;20302;-79
2021/07/16 10:20:15;;;;;;;2.60;2.40;;;;;;;29.08;39.08;99259.00;5072729;28;20256;-79
2021/07/16 10:22:43;;;;;;;2.42;2.22;;;;;;;28.94;37.31;99247.56;5040554;28;20279;-80
2021/07/16 10:25:18;;;;;;;2.35;1.98;;;;;;;28.73;37.39;99237.56;5056804;28;20678;-80
2021/07/16 10:27:45;;;;;;;2.20;2.10;;;;;;;29.01;37.08;99256.88;5057373;28;20322;-79
2021/07/16 10:30:15;;;;;;;2.40;2.15;;;;;;;29.14;36.63;99249.34;5039705;28;20262;-79
2021/07/16 10:32:53;;;;;;;2.15;2.05;;;;;;;29.19;35.76;99249.09;5041702;28;20854;-80
2021/07/16 10:35:29;;;;;;;2.20;2.00;;;;;;;29.37;36.14;99233.84;5052900;28;20239;-79
2021/07/16 10:38:01;;;;;;;2.95;2.20;;;;;;;29.06;36.70;99242.03;5053468;28;20641;-80
2021/07/16 10:40:41;;;;;;;2.55;2.30;;;;;;;29.49;36.72;99246.78;5036801;28;20248;-79
2021/07/16 10:43:40;;;;;;;3.38;2.45;;;;;;;29.62;35.12;99238.06;5053332;28;20236;-78
2021/07/16 10:46:28;;;;;;;2.72;1.80;;;;;;;29.87;33.79;99244.22;5045407;28;20236;-79
2021/07/16 10:48:55;;;;;;;2.53;2.13;;;;;;;29.23;34.51;99239.75;5053247;28;20230;-79
2021/07/16 10:51:25;;;;;;;2.92;2.40;;;;;;;29.57;35.84;99248.56;5052678;28;20225;-78
2021/07/16 10:53:52;;;;;;;2.97;2.20;;;;;;;29.80;35.02;99243.25;5036462;28;20234;-78
2021/07/16 10:56:20;;;;;;;3.15;2.40;;;;;;;29.99;35.05;99252.44;5036266;28;20236;-78
2021/07/16 10:58:49;;;;;;;3.13;2.30;;;;;;;29.87;34.74;99246.16;5036414;28;20256;-78
2021/07/16 11:01:31;;;;;;;2.35;2.10;;;;;;;29.67;34.73;99245.28;5052872;28;20253;-79
2021/07/16 11:04:01;;;;;;;2.70;2.50;;;;;;;29.63;34.60;99241.66;5052404;28;20256;-79
2021/07/16 11:06:58;;;;;;;2.10;2.00;;;;;;;29.79;33.38;99245.19;5053271;28;20620;-78
2021/07/16 11:09:34;;;;;;;3.67;2.35;;;;;;;29.49;33.22;99239.28;5088456;28;20248;-79
2021/07/16 11:12:30;;;;;;;2.90;2.30;;;;;;;28.74;36.09;99244.66;5054066;28;20235;-78
2021/07/16 11:14:57;;;;;;;3.05;2.30;;;;;;;29.15;34.79;99246.25;5038733;28;20643;-78
2021/07/16 11:17:28;;;;;;;2.75;2.17;;;;;;;29.73;34.31;99233.59;5055000;28;20708;-79
2021/07/16 11:20:12;;;;;;;3.40;2.20;;;;;;;29.75;34.08;99236.03;5071272;28;20233;-79
2021/07/16 11:22:59;;;;;;;2.67;2.47;;;;;;;29.98;34.37;99234.28;5054747;28;20338;-78
2021/07/16 11:25:31;;;;;;;2.63;2.42;;;;;;;30.19;32.85;99228.44;5056733;28;20229;-78
2021/07/16 11:27:58;;;;;;;3.13;2.10;;;;;;;30.43;33.22;99230.16;5055428;28;20286;-78
2021/07/16 11:30:26;;;;;;;2.72;2.50;;;;;;;30.36;33.98;99230.81;5072217;28;20610;-78
2021/07/16 11:33:00;;;;;;;2.70;2.47;;;;;;;30.46;33.75;99229.50;5055794;28;20308;-79
2021/07/16 11:35:27;;;;;;;3.85;2.63;;;;;;;30.45;32.99;99225.94;5072353;28;20224;-79
2021/07/16 11:37:54;;;;;;;2.53;2.40;;;;;;;30.29;34.04;99227.88;5072441;28;20235;-78
2021/07/16 11:40:22;;;;;;;2.67;2.45;;;;;;;30.77;33.54;99223.84;5055161;28;20591;-79
2021/07/16 11:42:53;;;;;;;3.50;2.60;;;;;;;31.21;32.91;99218.84;5072398;28;20256;-79